sensor_id;sensor_type;location;lat;lon;timestamp;temperature;humidity
60717;DHT22;46566;52.700;6.192;2023-02-10T01:19:09;2.00;99.90
60717;DHT22;46566;52.700;6.192;2023-02-10T01:21:35;1.80;99.90
60717;DHT22;46566;52.700;6.192;2023-02-10T01:24:03;1.80;99.90
60717;DHT22;46566;52.700;6.192;2023-02-10T01:26:30;1.80;99.90
60717;DHT22;46566;52.700;6.192;2023-02-10T01:28:57;1.80;99.90
60717;DHT22;46566;52.700;6.192;2023-02-10T01:31:22;1.80;99.90
60717;DHT22;46566;52.700;6.192;2023-02-10T01:33:52;1.70;99.90
60717;DHT22;46566;52.700;6.192;2023-02-10T01:36:20;1.70;99.90
60717;DHT22;46566;52.700;6.192;2023-02-10T01:38:46;1.70;99.90
60717;DHT22;46566;52.700;6.192;2023-02-10T01:41:14;1.70;99.90
60717;DHT22;46566;52.700;6.192;2023-02-10T01:43:54;1.70;99.90
60717;DHT22;46566;52.700;6.192;2023-02-10T01:46:20;1.70;99.90
60717;DHT22;46566;52.700;6.192;2023-02-10T01:48:46;1.70;99.90
60717;DHT22;46566;52.700;6.192;2023-02-10T01:51:12;1.60;99.90
60717;DHT22;46566;52.700;6.192;2023-02-10T01:53:39;1.60;99.90
60717;DHT22;46566;52.700;6.192;2023-02-10T01:56:05;1.60;99.90
60717;DHT22;46566;52.700;6.192;2023-02-10T01:58:33;1.60;99.90
60717;DHT22;46566;52.700;6.192;2023-02-10T02:01:00;1.60;99.90
60717;DHT22;46566;52.700;6.192;2023-02-10T02:03:25;1.60;99.90
60717;DHT22;46566;52.700;6.192;2023-02-10T02:05:51;1.60;99.90
60717;DHT22;46566;52.700;6.192;2023-02-10T02:08:25;1.60;99.90
60717;DHT22;46566;52.700;6.192;2023-02-10T02:11:14;1.60;99.90
60717;DHT22;46566;52.700;6.192;2023-02-10T02:14:02;1.60;99.90
60717;DHT22;46566;52.700;6.192;2023-02-10T02:17:02;1.60;99.90
60717;DHT22;46566;52.700;6.192;2023-02-10T02:22:41;1.50;99.90
60717;DHT22;46566;52.700;6.192;2023-02-10T02:28:33;1.60;99.90
60717;DHT22;46566;52.700;6.192;2023-02-10T02:34:12;1.60;99.90
60717;DHT22;46566;52.700;6.192;2023-02-10T02:36:56;1.60;99.90
60717;DHT22;46566;52.700;6.192;2023-02-10T02:39:23;1.50;99.90
60717;DHT22;46566;52.700;6.192;2023-02-10T02:42:06;1.50;99.90
60717;DHT22;46566;52.700;6.192;2023-02-10T02:44:38;1.60;99.90
60717;DHT22;46566;52.700;6.192;2023-02-10T02:47:13;1.50;99.90
60717;DHT22;46566;52.700;6.192;2023-02-10T02:49:56;1.50;99.90
60717;DHT22;46566;52.700;6.192;2023-02-10T03:01:53;1.60;99.90
60717;DHT22;46566;52.700;6.192;2023-02-10T03:04:15;1.60;99.90
60717;DHT22;46566;52.700;6.192;2023-02-10T03:06:42;1.50;99.90
60717;DHT22;46566;52.700;6.192;2023-02-10T03:09:08;1.50;99.90
60717;DHT22;46566;52.700;6.192;2023-02-10T03:11:34;1.50;99.90
60717;DHT22;46566;52.700;6.192;2023-02-10T03:13:59;1.50;99.90
60717;DHT22;46566;52.700;6.192;2023-02-10T03:16:25;1.50;99.90
60717;DHT22;46566;52.700;6.192;2023-02-10T03:18:51;1.50;99.90
60717;DHT22;46566;52.700;6.192;2023-02-10T03:21:17;1.50;99.90
60717;DHT22;46566;52.700;6.192;2023-02-10T03:23:42;1.50;99.90
60717;DHT22;46566;52.700;6.192;2023-02-10T03:26:08;1.40;99.90
60717;DHT22;46566;52.700;6.192;2023-02-10T03:28:34;1.40;99.90
60717;DHT22;46566;52.700;6.192;2023-02-10T03:31:07;1.40;99.90
60717;DHT22;46566;52.700;6.192;2023-02-10T03:33:33;1.40;99.90
60717;DHT22;46566;52.700;6.192;2023-02-10T03:35:59;1.40;99.90
60717;DHT22;46566;52.700;6.192;2023-02-10T03:38:27;1.40;99.90
60717;DHT22;46566;52.700;6.192;2023-02-10T03:40:54;1.40;99.90
60717;DHT22;46566;52.700;6.192;2023-02-10T03:43:20;1.30;99.90
60717;DHT22;46566;52.700;6.192;2023-02-10T03:45:47;1.30;99.90
60717;DHT22;46566;52.700;6.192;2023-02-10T03:48:13;1.30;99.90
60717;DHT22;46566;52.700;6.192;2023-02-10T03:50:39;1.30;99.90
60717;DHT22;46566;52.700;6.192;2023-02-10T03:53:05;1.40;99.90
60717;DHT22;46566;52.700;6.192;2023-02-10T03:55:31;1.30;99.90
60717;DHT22;46566;52.700;6.192;2023-02-10T03:57:57;1.30;99.90
60717;DHT22;46566;52.700;6.192;2023-02-10T04:00:22;1.30;99.90
60717;DHT22;46566;52.700;6.192;2023-02-10T04:02:48;1.30;99.90
60717;DHT22;46566;52.700;6.192;2023-02-10T04:05:14;1.30;99.90
60717;DHT22;46566;52.700;6.192;2023-02-10T04:07:40;1.30;99.90
60717;DHT22;46566;52.700;6.192;2023-02-10T04:10:07;1.30;99.90
60717;DHT22;46566;52.700;6.192;2023-02-10T04:12:32;1.20;99.90
60717;DHT22;46566;52.700;6.192;2023-02-10T04:14:58;1.20;99.90
60717;DHT22;46566;52.700;6.192;2023-02-10T04:17:24;1.20;99.90
60717;DHT22;46566;52.700;6.192;2023-02-10T04:19:49;1.20;99.90
60717;DHT22;46566;52.700;6.192;2023-02-10T04:22:15;1.20;99.90
60717;DHT22;46566;52.700;6.192;2023-02-10T04:24:41;1.20;99.90
60717;DHT22;46566;52.700;6.192;2023-02-10T04:27:06;1.20;99.90
60717;DHT22;46566;52.700;6.192;2023-02-10T04:29:32;1.20;99.90
60717;DHT22;46566;52.700;6.192;2023-02-10T04:31:59;1.20;99.90
60717;DHT22;46566;52.700;6.192;2023-02-10T04:34:25;1.20;99.90
60717;DHT22;46566;52.700;6.192;2023-02-10T04:36:50;1.20;99.90
60717;DHT22;46566;52.700;6.192;2023-02-10T04:39:16;1.20;99.90
60717;DHT22;46566;52.700;6.192;2023-02-10T04:41:42;1.20;99.90
60717;DHT22;46566;52.700;6.192;2023-02-10T04:44:07;1.20;99.90
60717;DHT22;46566;52.700;6.192;2023-02-10T04:46:33;1.20;99.90
60717;DHT22;46566;52.700;6.192;2023-02-10T04:48:58;1.10;99.90
60717;DHT22;46566;52.700;6.192;2023-02-10T04:51:24;1.10;99.90
60717;DHT22;46566;52.700;6.192;2023-02-10T04:53:50;1.10;99.90
60717;DHT22;46566;52.700;6.192;2023-02-10T04:56:15;1.10;99.90
60717;DHT22;46566;52.700;6.192;2023-02-10T04:58:41;1.10;99.90
60717;DHT22;46566;52.700;6.192;2023-02-10T05:01:07;1.10;99.90
60717;DHT22;46566;52.700;6.192;2023-02-10T05:03:33;1.10;99.90
60717;DHT22;46566;52.700;6.192;2023-02-10T05:05:59;1.10;99.90
60717;DHT22;46566;52.700;6.192;2023-02-10T05:08:25;1.10;99.90
60717;DHT22;46566;52.700;6.192;2023-02-10T05:10:52;1.20;99.90
60717;DHT22;46566;52.700;6.192;2023-02-10T05:13:17;1.20;99.90
60717;DHT22;46566;52.700;6.192;2023-02-10T05:15:43;1.20;99.90
60717;DHT22;46566;52.700;6.192;2023-02-10T05:18:09;1.20;99.90
60717;DHT22;46566;52.700;6.192;2023-02-10T05:20:35;1.20;99.90
60717;DHT22;46566;52.700;6.192;2023-02-10T05:23:01;1.20;99.90
60717;DHT22;46566;52.700;6.192;2023-02-10T05:25:27;1.20;99.90
60717;DHT22;46566;52.700;6.192;2023-02-10T05:27:53;1.20;99.90
60717;DHT22;46566;52.700;6.192;2023-02-10T05:30:18;1.30;99.90
60717;DHT22;46566;52.700;6.192;2023-02-10T05:32:44;1.30;99.90
60717;DHT22;46566;52.700;6.192;2023-02-10T05:35:10;1.30;99.90
60717;DHT22;46566;52.700;6.192;2023-02-10T05:37:36;1.30;99.90
60717;DHT22;46566;52.700;6.192;2023-02-10T05:40:02;1.30;99.90
60717;DHT22;46566;52.700;6.192;2023-02-10T05:42:28;1.30;99.90
60717;DHT22;46566;52.700;6.192;2023-02-10T05:44:53;1.30;99.90
60717;DHT22;46566;52.700;6.192;2023-02-10T05:47:19;1.30;99.90
60717;DHT22;46566;52.700;6.192;2023-02-10T05:49:44;1.30;99.90
60717;DHT22;46566;52.700;6.192;2023-02-10T05:52:10;1.30;99.90
60717;DHT22;46566;52.700;6.192;2023-02-10T05:54:36;1.30;99.90
60717;DHT22;46566;52.700;6.192;2023-02-10T05:57:02;1.30;99.90
60717;DHT22;46566;52.700;6.192;2023-02-10T05:59:28;1.30;99.90
60717;DHT22;46566;52.700;6.192;2023-02-10T06:01:54;1.30;99.90
60717;DHT22;46566;52.700;6.192;2023-02-10T06:04:20;1.30;99.90
60717;DHT22;46566;52.700;6.192;2023-02-10T06:06:46;1.30;99.90
60717;DHT22;46566;52.700;6.192;2023-02-10T06:09:12;1.30;99.90
60717;DHT22;46566;52.700;6.192;2023-02-10T06:11:37;1.30;99.90
60717;DHT22;46566;52.700;6.192;2023-02-10T06:14:03;1.30;99.90
60717;DHT22;46566;52.700;6.192;2023-02-10T06:16:29;1.30;99.90
60717;DHT22;46566;52.700;6.192;2023-02-10T06:18:55;1.30;99.90
60717;DHT22;46566;52.700;6.192;2023-02-10T06:21:21;1.30;99.90
60717;DHT22;46566;52.700;6.192;2023-02-10T06:23:48;1.30;99.90
60717;DHT22;46566;52.700;6.192;2023-02-10T06:26:14;1.30;99.90
60717;DHT22;46566;52.700;6.192;2023-02-10T06:28:40;1.30;99.90
60717;DHT22;46566;52.700;6.192;2023-02-10T06:31:06;1.30;99.90
60717;DHT22;46566;52.700;6.192;2023-02-10T06:33:33;1.30;99.90
60717;DHT22;46566;52.700;6.192;2023-02-10T06:36:02;1.30;99.90
60717;DHT22;46566;52.700;6.192;2023-02-10T06:38:31;1.30;99.90
60717;DHT22;46566;52.700;6.192;2023-02-10T06:40:58;1.30;99.90
60717;DHT22;46566;52.700;6.192;2023-02-10T06:43:23;1.30;99.90
60717;DHT22;46566;52.700;6.192;2023-02-10T06:45:49;1.30;99.90
60717;DHT22;46566;52.700;6.192;2023-02-10T06:48:14;1.30;99.90
60717;DHT22;46566;52.700;6.192;2023-02-10T06:50:40;1.30;99.90
60717;DHT22;46566;52.700;6.192;2023-02-10T06:53:06;1.20;99.90
60717;DHT22;46566;52.700;6.192;2023-02-10T06:55:31;1.20;99.90
60717;DHT22;46566;52.700;6.192;2023-02-10T06:58:00;1.20;99.90
60717;DHT22;46566;52.700;6.192;2023-02-10T07:00:27;1.20;99.90
60717;DHT22;46566;52.700;6.192;2023-02-10T07:02:53;1.20;99.90
60717;DHT22;46566;52.700;6.192;2023-02-10T07:05:19;1.10;99.90
60717;DHT22;46566;52.700;6.192;2023-02-10T07:07:44;1.30;99.90
60717;DHT22;46566;52.700;6.192;2023-02-10T07:10:10;1.20;99.90
60717;DHT22;46566;52.700;6.192;2023-02-10T07:12:37;1.20;99.90
60717;DHT22;46566;52.700;6.192;2023-02-10T07:15:04;1.30;99.90
60717;DHT22;46566;52.700;6.192;2023-02-10T07:17:30;1.80;99.90
60717;DHT22;46566;52.700;6.192;2023-02-10T07:19:55;1.30;99.90
60717;DHT22;46566;52.700;6.192;2023-02-10T07:22:21;1.30;99.90
60717;DHT22;46566;52.700;6.192;2023-02-10T07:24:47;1.30;99.90
60717;DHT22;46566;52.700;6.192;2023-02-10T07:27:12;1.30;99.90
60717;DHT22;46566;52.700;6.192;2023-02-10T07:29:38;1.30;99.90
60717;DHT22;46566;52.700;6.192;2023-02-10T07:32:04;1.40;99.90
60717;DHT22;46566;52.700;6.192;2023-02-10T07:34:30;1.40;99.90
60717;DHT22;46566;52.700;6.192;2023-02-10T07:36:59;1.40;99.90
60717;DHT22;46566;52.700;6.192;2023-02-10T07:39:26;1.40;99.90
60717;DHT22;46566;52.700;6.192;2023-02-10T07:41:52;1.50;99.90
60717;DHT22;46566;52.700;6.192;2023-02-10T07:44:20;1.50;99.90
60717;DHT22;46566;52.700;6.192;2023-02-10T07:49:12;1.40;99.90
60717;DHT22;46566;52.700;6.192;2023-02-10T08:03:50;1.50;99.90
60717;DHT22;46566;52.700;6.192;2023-02-10T08:06:23;1.60;99.90
60717;DHT22;46566;52.700;6.192;2023-02-10T08:08:49;1.60;99.90
60717;DHT22;46566;52.700;6.192;2023-02-10T08:11:16;1.70;99.90
60717;DHT22;46566;52.700;6.192;2023-02-10T08:13:41;1.70;99.90
60717;DHT22;46566;52.700;6.192;2023-02-10T08:16:07;1.70;99.90
60717;DHT22;46566;52.700;6.192;2023-02-10T08:18:39;1.70;99.90
60717;DHT22;46566;52.700;6.192;2023-02-10T08:35:41;4.20;99.90
60717;DHT22;46566;52.700;6.192;2023-02-10T08:38:07;4.10;99.90
60717;DHT22;46566;52.700;6.192;2023-02-10T08:40:35;4.60;99.90
60717;DHT22;46566;52.700;6.192;2023-02-10T08:43:01;5.10;99.90
60717;DHT22;46566;52.700;6.192;2023-02-10T08:45:27;5.40;99.90
60717;DHT22;46566;52.700;6.192;2023-02-10T08:47:53;5.60;99.90
60717;DHT22;46566;52.700;6.192;2023-02-10T08:50:19;5.60;99.90
60717;DHT22;46566;52.700;6.192;2023-02-10T08:52:44;5.40;99.90
60717;DHT22;46566;52.700;6.192;2023-02-10T08:55:11;5.00;99.90
60717;DHT22;46566;52.700;6.192;2023-02-10T08:57:37;4.60;99.90
60717;DHT22;46566;52.700;6.192;2023-02-10T09:00:05;4.30;99.90
60717;DHT22;46566;52.700;6.192;2023-02-10T09:02:31;4.10;99.90
60717;DHT22;46566;52.700;6.192;2023-02-10T09:04:57;3.90;99.90
60717;DHT22;46566;52.700;6.192;2023-02-10T09:07:23;3.70;99.90
60717;DHT22;46566;52.700;6.192;2023-02-10T09:09:51;3.60;99.90
60717;DHT22;46566;52.700;6.192;2023-02-10T09:12:17;3.50;99.90
60717;DHT22;46566;52.700;6.192;2023-02-10T09:14:42;3.50;99.90
60717;DHT22;46566;52.700;6.192;2023-02-10T09:17:08;3.50;99.90
60717;DHT22;46566;52.700;6.192;2023-02-10T09:19:37;3.40;99.90
60717;DHT22;46566;52.700;6.192;2023-02-10T09:22:04;3.30;99.90
60717;DHT22;46566;52.700;6.192;2023-02-10T09:24:30;3.30;99.90
60717;DHT22;46566;52.700;6.192;2023-02-10T09:26:56;3.30;99.90
60717;DHT22;46566;52.700;6.192;2023-02-10T09:29:21;3.20;99.90
60717;DHT22;46566;52.700;6.192;2023-02-10T09:31:47;3.20;99.90
60717;DHT22;46566;52.700;6.192;2023-02-10T09:34:13;3.30;99.90
60717;DHT22;46566;52.700;6.192;2023-02-10T09:36:38;3.40;99.90
60717;DHT22;46566;52.700;6.192;2023-02-10T09:39:04;3.50;99.90
60717;DHT22;46566;52.700;6.192;2023-02-10T09:44:17;3.90;99.90
60717;DHT22;46566;52.700;6.192;2023-02-10T09:46:59;4.10;99.90
60717;DHT22;46566;52.700;6.192;2023-02-10T09:55:37;4.70;99.90
60717;DHT22;46566;52.700;6.192;2023-02-10T09:58:28;4.90;99.90
60717;DHT22;46566;52.700;6.192;2023-02-10T10:01:03;5.00;99.90
60717;DHT22;46566;52.700;6.192;2023-02-10T10:03:50;5.10;99.90
60717;DHT22;46566;52.700;6.192;2023-02-10T10:06:33;5.20;99.90
60717;DHT22;46566;52.700;6.192;2023-02-10T10:11:44;5.40;99.90
60717;DHT22;46566;52.700;6.192;2023-02-10T10:14:35;5.50;99.90
60717;DHT22;46566;52.700;6.192;2023-02-10T10:31:26;6.20;99.90
60717;DHT22;46566;52.700;6.192;2023-02-10T10:36:42;6.40;99.90
60717;DHT22;46566;52.700;6.192;2023-02-10T10:39:24;6.50;99.90
60717;DHT22;46566;52.700;6.192;2023-02-10T10:41:53;6.60;99.90
60717;DHT22;46566;52.700;6.192;2023-02-10T10:44:19;6.80;99.90
60717;DHT22;46566;52.700;6.192;2023-02-10T10:46:47;6.80;99.90
60717;DHT22;46566;52.700;6.192;2023-02-10T10:49:15;6.90;99.90
60717;DHT22;46566;52.700;6.192;2023-02-10T10:51:41;7.00;99.90
60717;DHT22;46566;52.700;6.192;2023-02-10T10:54:14;7.00;99.90
60717;DHT22;46566;52.700;6.192;2023-02-10T10:59:20;7.20;99.90
60717;DHT22;46566;52.700;6.192;2023-02-10T11:01:49;7.40;99.90
60717;DHT22;46566;52.700;6.192;2023-02-10T11:04:17;7.40;99.90
60717;DHT22;46566;52.700;6.192;2023-02-10T11:06:46;7.60;99.90
60717;DHT22;46566;52.700;6.192;2023-02-10T11:09:32;7.70;99.90
60717;DHT22;46566;52.700;6.192;2023-02-10T11:14:29;7.90;99.90
60717;DHT22;46566;52.700;6.192;2023-02-10T11:16:59;7.90;99.90
60717;DHT22;46566;52.700;6.192;2023-02-10T11:19:34;8.00;99.90
60717;DHT22;46566;52.700;6.192;2023-02-10T11:22:00;8.10;99.90
60717;DHT22;46566;52.700;6.192;2023-02-10T11:24:32;8.10;99.90
60717;DHT22;46566;52.700;6.192;2023-02-10T11:27:06;8.00;99.90
60717;DHT22;46566;52.700;6.192;2023-02-10T11:29:47;8.00;99.90
60717;DHT22;46566;52.700;6.192;2023-02-10T11:32:27;8.00;99.90
60717;DHT22;46566;52.700;6.192;2023-02-10T11:34:58;8.10;99.90
60717;DHT22;46566;52.700;6.192;2023-02-10T11:37:28;8.20;99.90
60717;DHT22;46566;52.700;6.192;2023-02-10T11:39:56;8.30;99.90
60717;DHT22;46566;52.700;6.192;2023-02-10T11:42:33;8.40;99.90
60717;DHT22;46566;52.700;6.192;2023-02-10T11:47:37;8.70;99.90
60717;DHT22;46566;52.700;6.192;2023-02-10T11:50:04;8.80;99.90
60717;DHT22;46566;52.700;6.192;2023-02-10T11:52:43;9.00;99.90
60717;DHT22;46566;52.700;6.192;2023-02-10T11:55:12;9.20;99.90
60717;DHT22;46566;52.700;6.192;2023-02-10T12:00:58;9.60;99.90
60717;DHT22;46566;52.700;6.192;2023-02-10T12:03:41;9.80;99.90
60717;DHT22;46566;52.700;6.192;2023-02-10T12:11:27;9.90;99.90
60717;DHT22;46566;52.700;6.192;2023-02-10T12:16:41;10.10;99.90
60717;DHT22;46566;52.700;6.192;2023-02-10T12:19:23;10.10;99.90
60717;DHT22;46566;52.700;6.192;2023-02-10T12:22:26;10.20;99.90
60717;DHT22;46566;52.700;6.192;2023-02-10T12:27:42;10.20;99.90
60717;DHT22;46566;52.700;6.192;2023-02-10T12:30:22;10.10;99.90
60717;DHT22;46566;52.700;6.192;2023-02-10T12:33:00;10.10;99.90
60717;DHT22;46566;52.700;6.192;2023-02-10T12:35:39;10.20;99.90
60717;DHT22;46566;52.700;6.192;2023-02-10T12:46:16;10.10;99.90
60717;DHT22;46566;52.700;6.192;2023-02-10T12:51:31;9.70;99.90
60717;DHT22;46566;52.700;6.192;2023-02-10T12:54:26;9.60;99.90
60717;DHT22;46566;52.700;6.192;2023-02-10T12:56:55;9.50;99.90
60717;DHT22;46566;52.700;6.192;2023-02-10T12:59:46;9.50;99.90
60717;DHT22;46566;52.700;6.192;2023-02-10T13:02:18;9.40;99.90
60717;DHT22;46566;52.700;6.192;2023-02-10T13:04:49;9.10;99.90
60717;DHT22;46566;52.700;6.192;2023-02-10T13:12:47;8.90;99.90
60717;DHT22;46566;52.700;6.192;2023-02-10T13:15:28;8.90;99.90
60717;DHT22;46566;52.700;6.192;2023-02-10T13:17:55;9.00;99.90
60717;DHT22;46566;52.700;6.192;2023-02-10T13:20:34;9.10;99.90
60717;DHT22;46566;52.700;6.192;2023-02-10T13:23:23;9.20;99.90
60717;DHT22;46566;52.700;6.192;2023-02-10T13:26:13;9.30;99.90
60717;DHT22;46566;52.700;6.192;2023-02-10T13:34:30;9.50;99.90
60717;DHT22;46566;52.700;6.192;2023-02-10T13:37:15;9.50;99.90
60717;DHT22;46566;52.700;6.192;2023-02-10T13:39:57;9.50;99.90
60717;DHT22;46566;52.700;6.192;2023-02-10T13:42:33;9.60;99.90
60717;DHT22;46566;52.700;6.192;2023-02-10T13:45:15;9.70;99.90
60717;DHT22;46566;52.700;6.192;2023-02-10T13:53:00;10.10;99.90
60717;DHT22;46566;52.700;6.192;2023-02-10T13:55:38;10.10;99.90
60717;DHT22;46566;52.700;6.192;2023-02-10T14:05:37;9.80;99.90
60717;DHT22;46566;52.700;6.192;2023-02-10T14:08:14;9.70;99.90
60717;DHT22;46566;52.700;6.192;2023-02-10T14:10:41;9.60;99.90
60717;DHT22;46566;52.700;6.192;2023-02-10T14:13:24;9.50;99.90
60717;DHT22;46566;52.700;6.192;2023-02-10T14:18:39;9.30;99.90
60717;DHT22;46566;52.700;6.192;2023-02-10T14:23:35;9.20;99.90
60717;DHT22;46566;52.700;6.192;2023-02-10T14:26:05;9.10;99.90
60717;DHT22;46566;52.700;6.192;2023-02-10T14:28:35;9.10;99.90
60717;DHT22;46566;52.700;6.192;2023-02-10T14:31:05;9.00;99.90
60717;DHT22;46566;52.700;6.192;2023-02-10T14:33:33;8.90;99.90
60717;DHT22;46566;52.700;6.192;2023-02-10T14:36:03;8.80;99.90
60717;DHT22;46566;52.700;6.192;2023-02-10T14:38:33;8.80;99.90
60717;DHT22;46566;52.700;6.192;2023-02-10T14:41:03;8.70;99.90
60717;DHT22;46566;52.700;6.192;2023-02-10T14:43:31;8.60;99.90
60717;DHT22;46566;52.700;6.192;2023-02-10T14:45:59;8.60;99.90
60717;DHT22;46566;52.700;6.192;2023-02-10T14:48:26;8.60;99.90
60717;DHT22;46566;52.700;6.192;2023-02-10T14:53:26;8.50;99.90
60717;DHT22;46566;52.700;6.192;2023-02-10T14:55:54;8.40;99.90
60717;DHT22;46566;52.700;6.192;2023-02-10T14:58:21;8.40;99.90
60717;DHT22;46566;52.700;6.192;2023-02-10T15:01:12;8.30;99.90
60717;DHT22;46566;52.700;6.192;2023-02-10T15:03:40;8.30;99.90
60717;DHT22;46566;52.700;6.192;2023-02-10T15:06:06;8.20;99.90
60717;DHT22;46566;52.700;6.192;2023-02-10T15:08:45;8.20;99.90
60717;DHT22;46566;52.700;6.192;2023-02-10T15:11:25;8.20;99.90
60717;DHT22;46566;52.700;6.192;2023-02-10T15:14:26;8.20;99.90
60717;DHT22;46566;52.700;6.192;2023-02-10T15:16:56;8.20;99.90
60717;DHT22;46566;52.700;6.192;2023-02-10T15:19:22;8.20;99.90
60717;DHT22;46566;52.700;6.192;2023-02-10T15:21:48;8.10;99.90
60717;DHT22;46566;52.700;6.192;2023-02-10T15:24:29;8.10;99.90
60717;DHT22;46566;52.700;6.192;2023-02-10T15:27:07;8.10;99.90
60717;DHT22;46566;52.700;6.192;2023-02-10T15:29:36;8.10;99.90
60717;DHT22;46566;52.700;6.192;2023-02-10T15:32:03;8.00;99.90
60717;DHT22;46566;52.700;6.192;2023-02-10T15:34:31;8.00;99.90
60717;DHT22;46566;52.700;6.192;2023-02-10T15:37:05;8.00;99.90
60717;DHT22;46566;52.700;6.192;2023-02-10T15:39:34;8.00;99.90
60717;DHT22;46566;52.700;6.192;2023-02-10T15:49:52;7.80;99.90
60717;DHT22;46566;52.700;6.192;2023-02-10T15:52:28;7.80;99.90
60717;DHT22;46566;52.700;6.192;2023-02-10T15:54:58;7.80;99.90
60717;DHT22;46566;52.700;6.192;2023-02-10T15:57:25;7.80;99.90
60717;DHT22;46566;52.700;6.192;2023-02-10T15:59:50;7.70;99.90
60717;DHT22;46566;52.700;6.192;2023-02-10T16:02:19;7.60;99.90
60717;DHT22;46566;52.700;6.192;2023-02-10T16:04:45;7.60;99.90
60717;DHT22;46566;52.700;6.192;2023-02-10T16:07:19;7.50;99.90
60717;DHT22;46566;52.700;6.192;2023-02-10T16:09:45;7.40;99.90
60717;DHT22;46566;52.700;6.192;2023-02-10T16:12:11;7.40;99.90
60717;DHT22;46566;52.700;6.192;2023-02-10T16:14:37;7.30;99.90
60717;DHT22;46566;52.700;6.192;2023-02-10T16:17:04;7.30;99.90
60717;DHT22;46566;52.700;6.192;2023-02-10T16:19:30;7.20;99.90
60717;DHT22;46566;52.700;6.192;2023-02-10T16:21:56;7.20;99.90
60717;DHT22;46566;52.700;6.192;2023-02-10T16:24:28;7.20;99.90
60717;DHT22;46566;52.700;6.192;2023-02-10T16:26:54;7.10;99.90
60717;DHT22;46566;52.700;6.192;2023-02-10T16:29:23;7.00;99.90
60717;DHT22;46566;52.700;6.192;2023-02-10T16:31:49;7.00;99.90
60717;DHT22;46566;52.700;6.192;2023-02-10T16:34:15;7.00;99.90
60717;DHT22;46566;52.700;6.192;2023-02-10T16:36:41;7.00;99.90
60717;DHT22;46566;52.700;6.192;2023-02-10T16:39:16;6.90;99.90
60717;DHT22;46566;52.700;6.192;2023-02-10T16:41:44;6.90;99.90
60717;DHT22;46566;52.700;6.192;2023-02-10T16:44:09;6.90;99.90
60717;DHT22;46566;52.700;6.192;2023-02-10T16:46:35;6.90;99.90
60717;DHT22;46566;52.700;6.192;2023-02-10T16:49:02;6.80;99.90
60717;DHT22;46566;52.700;6.192;2023-02-10T16:51:28;6.80;99.90
60717;DHT22;46566;52.700;6.192;2023-02-10T16:53:53;6.80;99.90
60717;DHT22;46566;52.700;6.192;2023-02-10T16:56:21;6.80;99.90
60717;DHT22;46566;52.700;6.192;2023-02-10T16:58:47;6.80;99.90
60717;DHT22;46566;52.700;6.192;2023-02-10T17:01:13;6.80;99.90
60717;DHT22;46566;52.700;6.192;2023-02-10T17:03:39;6.80;99.90
60717;DHT22;46566;52.700;6.192;2023-02-10T17:06:05;6.80;99.90
60717;DHT22;46566;52.700;6.192;2023-02-10T17:08:31;6.80;99.90
60717;DHT22;46566;52.700;6.192;2023-02-10T17:10:57;6.80;99.90
60717;DHT22;46566;52.700;6.192;2023-02-10T17:13:22;6.80;99.90
60717;DHT22;46566;52.700;6.192;2023-02-10T17:15:48;6.80;99.90
60717;DHT22;46566;52.700;6.192;2023-02-10T17:18:16;6.80;99.90
60717;DHT22;46566;52.700;6.192;2023-02-10T17:20:42;6.80;99.90
60717;DHT22;46566;52.700;6.192;2023-02-10T17:23:08;6.70;99.90
60717;DHT22;46566;52.700;6.192;2023-02-10T17:25:34;6.80;99.90
60717;DHT22;46566;52.700;6.192;2023-02-10T17:28:00;6.80;99.90
60717;DHT22;46566;52.700;6.192;2023-02-10T17:30:26;6.70;99.90
60717;DHT22;46566;52.700;6.192;2023-02-10T17:32:52;6.70;99.90
60717;DHT22;46566;52.700;6.192;2023-02-10T17:35:20;6.70;99.90
60717;DHT22;46566;52.700;6.192;2023-02-10T17:40:17;6.70;99.90
60717;DHT22;46566;52.700;6.192;2023-02-10T17:42:56;6.70;99.90
60717;DHT22;46566;52.700;6.192;2023-02-10T17:45:22;6.60;99.90
60717;DHT22;46566;52.700;6.192;2023-02-10T17:47:47;6.60;99.90
60717;DHT22;46566;52.700;6.192;2023-02-10T17:50:13;6.60;99.90
60717;DHT22;46566;52.700;6.192;2023-02-10T17:52:39;6.70;99.90
60717;DHT22;46566;52.700;6.192;2023-02-10T17:55:05;6.60;99.90
60717;DHT22;46566;52.700;6.192;2023-02-10T17:57:32;6.60;99.90
60717;DHT22;46566;52.700;6.192;2023-02-10T17:59:57;6.60;99.90
60717;DHT22;46566;52.700;6.192;2023-02-10T18:02:24;6.60;99.90
60717;DHT22;46566;52.700;6.192;2023-02-10T18:04:49;6.70;99.90
60717;DHT22;46566;52.700;6.192;2023-02-10T18:07:16;6.60;99.90
60717;DHT22;46566;52.700;6.192;2023-02-10T18:09:43;6.60;99.90
60717;DHT22;46566;52.700;6.192;2023-02-10T18:12:09;6.70;99.90
60717;DHT22;46566;52.700;6.192;2023-02-10T18:14:38;6.60;99.90
60717;DHT22;46566;52.700;6.192;2023-02-10T18:17:04;6.60;99.90
60717;DHT22;46566;52.700;6.192;2023-02-10T18:19:30;6.70;99.90
60717;DHT22;46566;52.700;6.192;2023-02-10T18:21:56;6.60;99.90
60717;DHT22;46566;52.700;6.192;2023-02-10T18:24:22;6.70;99.90
60717;DHT22;46566;52.700;6.192;2023-02-10T18:26:51;6.70;99.90
60717;DHT22;46566;52.700;6.192;2023-02-10T18:29:17;6.70;99.90
60717;DHT22;46566;52.700;6.192;2023-02-10T18:31:43;6.70;99.90
60717;DHT22;46566;52.700;6.192;2023-02-10T18:34:08;6.70;99.90
60717;DHT22;46566;52.700;6.192;2023-02-10T18:41:27;6.70;99.90
60717;DHT22;46566;52.700;6.192;2023-02-10T18:43:52;6.60;99.90
60717;DHT22;46566;52.700;6.192;2023-02-10T18:46:19;6.60;99.90
60717;DHT22;46566;52.700;6.192;2023-02-10T18:48:45;6.60;99.90
60717;DHT22;46566;52.700;6.192;2023-02-10T18:51:12;6.60;99.90
60717;DHT22;46566;52.700;6.192;2023-02-10T18:53:38;6.60;99.90
60717;DHT22;46566;52.700;6.192;2023-02-10T18:56:09;6.60;99.90
60717;DHT22;46566;52.700;6.192;2023-02-10T18:58:35;6.60;99.90
60717;DHT22;46566;52.700;6.192;2023-02-10T19:01:03;6.60;99.90
60717;DHT22;46566;52.700;6.192;2023-02-10T19:03:29;6.60;99.90
60717;DHT22;46566;52.700;6.192;2023-02-10T19:05:54;6.50;99.90
60717;DHT22;46566;52.700;6.192;2023-02-10T19:08:20;6.50;99.90
60717;DHT22;46566;52.700;6.192;2023-02-10T19:10:46;6.50;99.90
60717;DHT22;46566;52.700;6.192;2023-02-10T19:13:11;6.40;99.90
60717;DHT22;46566;52.700;6.192;2023-02-10T19:15:37;6.50;99.90
60717;DHT22;46566;52.700;6.192;2023-02-10T19:18:16;6.40;99.90
60717;DHT22;46566;52.700;6.192;2023-02-10T19:20:41;6.40;99.90
60717;DHT22;46566;52.700;6.192;2023-02-10T19:23:07;6.40;99.90
60717;DHT22;46566;52.700;6.192;2023-02-10T19:25:33;6.30;99.90
60717;DHT22;46566;52.700;6.192;2023-02-10T19:27:59;6.30;99.90
60717;DHT22;46566;52.700;6.192;2023-02-10T19:30:24;6.30;99.90
60717;DHT22;46566;52.700;6.192;2023-02-10T19:32:51;6.30;99.90
60717;DHT22;46566;52.700;6.192;2023-02-10T19:35:17;6.30;99.90
60717;DHT22;46566;52.700;6.192;2023-02-10T19:37:42;6.30;99.90
60717;DHT22;46566;52.700;6.192;2023-02-10T19:40:08;6.30;99.90
60717;DHT22;46566;52.700;6.192;2023-02-10T19:42:34;6.30;99.90
60717;DHT22;46566;52.700;6.192;2023-02-10T19:45:00;6.30;99.90
60717;DHT22;46566;52.700;6.192;2023-02-10T19:47:26;6.30;99.90
60717;DHT22;46566;52.700;6.192;2023-02-10T19:49:51;6.30;99.90